createdAt,value
2022-08-08T00:00:54.585Z,1017.34
2022-08-08T00:01:08.367Z,1017.35
2022-08-08T00:02:32.749Z,1017.36
2022-08-08T00:03:13.164Z,1017.34
2022-08-08T00:04:04.755Z,1017.34
2022-08-08T00:05:03.602Z,1017.40
2022-08-08T00:06:04.704Z,1017.37
2022-08-08T00:07:12.504Z,1017.40
2022-08-08T00:08:04.569Z,1017.36
2022-08-08T00:09:03.581Z,1017.40
2022-08-08T00:10:03.548Z,1017.35
2022-08-08T00:11:07.872Z,1017.36
2022-08-08T00:12:09.456Z,1017.37
2022-08-08T00:13:04.520Z,1017.36
2022-08-08T00:14:17.572Z,1017.32
2022-08-08T00:15:04.925Z,1017.31
2022-08-08T00:16:03.480Z,1017.37
2022-08-08T00:17:03.474Z,1017.32
2022-08-08T00:18:04.702Z,1017.32
2022-08-08T00:19:03.445Z,1017.28
2022-08-08T00:20:03.458Z,1017.29
2022-08-08T00:21:05.372Z,1017.27
2022-08-08T00:22:03.420Z,1017.25
2022-08-08T00:23:03.407Z,1017.23
2022-08-08T00:24:03.391Z,1017.24
2022-08-08T00:25:03.400Z,1017.25
2022-08-08T00:26:03.370Z,1017.22
2022-08-08T00:27:03.365Z,1017.25
2022-08-08T00:28:03.352Z,1017.25
2022-08-08T00:29:03.338Z,1017.25
2022-08-08T00:30:03.323Z,1017.27
2022-08-08T00:32:21.292Z,1017.30
2022-08-08T00:32:28.634Z,1017.26
2022-08-08T00:33:04.286Z,1017.30
2022-08-08T00:34:18.076Z,1017.27
2022-08-08T00:35:04.486Z,1017.29
2022-08-08T00:36:03.309Z,1017.30
2022-08-08T00:37:03.747Z,1017.31
2022-08-08T00:38:03.411Z,1017.35
2022-08-08T00:39:03.235Z,1017.32
2022-08-08T00:41:09.469Z,1017.30
2022-08-08T00:41:11.272Z,1017.35
2022-08-08T00:42:08.981Z,1017.35
2022-08-08T00:43:11.998Z,1017.33
2022-08-08T00:44:04.228Z,1017.32
2022-08-08T00:45:03.399Z,1017.34
2022-08-08T00:46:03.148Z,1017.36
2022-08-08T00:47:04.539Z,1017.39
2022-08-08T00:48:06.325Z,1017.32
2022-08-08T00:49:03.110Z,1017.33
2022-08-08T00:50:03.103Z,1017.35
2022-08-08T00:51:03.086Z,1017.29
2022-08-08T00:52:03.081Z,1017.26
2022-08-08T00:53:03.078Z,1017.26
2022-08-08T00:54:15.461Z,1017.26
2022-08-08T00:55:04.038Z,1017.24
2022-08-08T00:56:03.033Z,1017.25
2022-08-08T00:57:03.022Z,1017.23
2022-08-08T00:58:03.027Z,1017.29
2022-08-08T00:59:02.999Z,1017.24
2022-08-08T01:00:04.918Z,1017.25
2022-08-08T01:01:03.091Z,1017.26
2022-08-08T01:02:03.034Z,1017.27
2022-08-08T01:03:59.070Z,1017.23
2022-08-08T01:04:04.997Z,1017.25
2022-08-08T01:05:03.901Z,1017.25
2022-08-08T01:06:02.928Z,1017.23
2022-08-08T01:07:06.054Z,1017.26
2022-08-08T01:08:02.900Z,1017.22
2022-08-08T01:09:34.800Z,1017.25
2022-08-08T01:10:05.971Z,1017.23
2022-08-08T01:11:02.856Z,1017.24
2022-08-08T01:12:03.846Z,1017.27
2022-08-08T01:13:02.834Z,1017.25
2022-08-08T01:14:02.836Z,1017.26
2022-08-08T01:15:02.808Z,1017.25
2022-08-08T01:16:02.806Z,1017.21
2022-08-08T01:17:02.793Z,1017.22
2022-08-08T01:18:02.780Z,1017.22
2022-08-08T01:19:11.750Z,1017.24
2022-08-08T01:20:03.913Z,1017.21
2022-08-08T01:21:02.754Z,1017.20
2022-08-08T01:22:12.460Z,1017.19
2022-08-08T01:23:03.715Z,1017.16
2022-08-08T01:24:13.468Z,1017.18
2022-08-08T01:25:03.714Z,1017.20
2022-08-08T01:26:05.978Z,1017.20
2022-08-08T01:27:07.102Z,1017.23
2022-08-08T01:28:03.672Z,1017.24
2022-08-08T01:29:02.653Z,1017.27
2022-08-08T01:30:03.529Z,1017.27
2022-08-08T01:31:02.631Z,1017.31
2022-08-08T01:32:13.741Z,1017.32
2022-08-08T01:33:16.277Z,1017.31
2022-08-08T01:34:03.598Z,1017.32
2022-08-08T01:35:02.586Z,1017.33
2022-08-08T01:36:03.586Z,1017.32
2022-08-08T01:37:02.556Z,1017.31
2022-08-08T01:38:02.549Z,1017.29
2022-08-08T01:39:02.582Z,1017.30
2022-08-08T01:40:02.910Z,1017.31
2022-08-08T01:41:02.580Z,1017.30
2022-08-08T01:42:02.505Z,1017.25
2022-08-08T01:43:02.494Z,1017.29
2022-08-08T01:44:02.476Z,1017.29
2022-08-08T01:45:02.472Z,1017.31
2022-08-08T01:46:02.476Z,1017.29
2022-08-08T01:47:05.990Z,1017.28
2022-08-08T01:48:16.885Z,1017.26
2022-08-08T01:49:03.425Z,1017.29
2022-08-08T01:50:03.404Z,1017.26
2022-08-08T01:51:02.418Z,1017.27
2022-08-08T01:52:42.074Z,1017.26
2022-08-08T01:55:26.171Z,1017.26
2022-08-08T01:55:26.984Z,1017.26
2022-08-08T01:55:45.331Z,1017.25
2022-08-08T01:56:29.442Z,1017.26
2022-08-08T01:57:03.329Z,1017.25
2022-08-08T01:58:11.261Z,1017.24
2022-08-08T01:59:03.301Z,1017.22
2022-08-08T02:00:03.751Z,1017.24
2022-08-08T02:01:02.351Z,1017.21
2022-08-08T02:02:05.283Z,1017.23
2022-08-08T02:03:04.471Z,1017.20
2022-08-08T02:04:02.268Z,1017.19
2022-08-08T02:05:02.237Z,1017.20
2022-08-08T02:06:02.231Z,1017.18
2022-08-08T02:07:02.233Z,1017.19
2022-08-08T02:08:02.223Z,1017.21
2022-08-08T02:09:02.200Z,1017.19
2022-08-08T02:10:11.539Z,1017.21
2022-08-08T02:11:03.169Z,1017.20
2022-08-08T02:12:02.177Z,1017.18
2022-08-08T02:13:02.149Z,1017.19
2022-08-08T02:14:03.055Z,1017.19
2022-08-08T02:15:03.111Z,1017.21
2022-08-08T02:16:02.113Z,1017.20
2022-08-08T02:17:02.132Z,1017.23
2022-08-08T02:18:02.097Z,1017.23
2022-08-08T02:19:03.056Z,1017.16
2022-08-08T02:20:09.062Z,1017.22
2022-08-08T02:21:07.994Z,1017.23
2022-08-08T02:22:03.069Z,1017.21
2022-08-08T02:23:02.044Z,1017.20
2022-08-08T02:24:02.024Z,1017.19
2022-08-08T02:25:07.106Z,1017.16
2022-08-08T02:26:03.000Z,1017.22
2022-08-08T02:27:02.008Z,1017.20
2022-08-08T02:28:02.053Z,1017.21
2022-08-08T02:29:01.969Z,1017.22
2022-08-08T02:30:01.958Z,1017.22
2022-08-08T02:31:04.567Z,1017.26
2022-08-08T02:32:04.988Z,1017.25
2022-08-08T02:33:01.925Z,1017.25
2022-08-08T02:34:08.464Z,1017.26
2022-08-08T02:35:11.219Z,1017.27
2022-08-08T02:36:05.175Z,1017.26
2022-08-08T02:37:01.879Z,1017.31
2022-08-08T02:38:01.865Z,1017.31
2022-08-08T02:39:01.855Z,1017.30
2022-08-08T02:40:02.949Z,1017.31
2022-08-08T02:41:01.838Z,1017.32
2022-08-08T02:42:05.944Z,1017.32
2022-08-08T02:44:36.997Z,1017.32
2022-08-08T02:44:38.034Z,1017.27
2022-08-08T02:45:03.768Z,1017.32
2022-08-08T02:46:01.803Z,1017.31
2022-08-08T02:47:01.773Z,1017.29
2022-08-08T02:48:01.755Z,1017.28
2022-08-08T02:49:01.743Z,1017.28
2022-08-08T02:50:01.747Z,1017.30
2022-08-08T02:51:01.730Z,1017.32
2022-08-08T02:52:32.605Z,1017.30
2022-08-08T02:53:02.696Z,1017.30
2022-08-08T02:54:01.695Z,1017.31
2022-08-08T02:55:02.225Z,1017.36
2022-08-08T02:56:01.694Z,1017.33
2022-08-08T02:57:01.655Z,1017.28
2022-08-08T02:58:01.695Z,1017.33
2022-08-08T02:59:01.631Z,1017.34
2022-08-08T03:00:26.745Z,1017.33
2022-08-08T03:01:02.717Z,1017.34
2022-08-08T03:02:01.688Z,1017.31
2022-08-08T03:03:01.593Z,1017.33
2022-08-08T03:05:04.992Z,1017.34
2022-08-08T03:05:09.135Z,1017.31
2022-08-08T03:06:02.571Z,1017.29
2022-08-08T03:07:01.545Z,1017.31
2022-08-08T03:08:02.530Z,1017.31
2022-08-08T03:09:01.530Z,1017.34
2022-08-08T03:10:01.519Z,1017.32
2022-08-08T03:11:01.507Z,1017.31
2022-08-08T03:12:06.081Z,1017.29
2022-08-08T03:13:33.447Z,1017.32
2022-08-08T03:15:56.872Z,1017.29
2022-08-08T03:15:57.988Z,1017.36
2022-08-08T03:16:05.245Z,1017.31
2022-08-08T03:17:01.448Z,1017.30
2022-08-08T03:18:04.888Z,1017.33
2022-08-08T03:19:02.408Z,1017.32
2022-08-08T03:20:03.543Z,1017.39
2022-08-08T03:21:01.795Z,1017.38
2022-08-08T03:22:02.389Z,1017.39
2022-08-08T03:23:04.589Z,1017.41
2022-08-08T03:24:01.934Z,1017.40
2022-08-08T03:25:01.350Z,1017.45
2022-08-08T03:26:01.331Z,1017.42
2022-08-08T03:27:01.338Z,1017.46
2022-08-08T03:28:01.315Z,1017.49
2022-08-08T03:29:01.299Z,1017.46
2022-08-08T03:30:01.301Z,1017.48
2022-08-08T03:31:22.779Z,1017.46
2022-08-08T03:32:07.007Z,1017.46
2022-08-08T03:33:07.712Z,1017.46
2022-08-08T03:34:02.326Z,1017.48
2022-08-08T03:35:01.246Z,1017.48
2022-08-08T03:36:01.227Z,1017.47
2022-08-08T03:37:01.231Z,1017.47
2022-08-08T03:38:57.410Z,1017.48
2022-08-08T03:39:14.327Z,1017.49
2022-08-08T03:40:03.935Z,1017.49
2022-08-08T03:41:01.294Z,1017.49
2022-08-08T03:42:11.598Z,1017.47
2022-08-08T03:43:16.734Z,1017.52
2022-08-08T03:44:02.130Z,1017.52
2022-08-08T03:45:02.152Z,1017.48
2022-08-08T03:46:06.977Z,1017.47
2022-08-08T03:47:14.137Z,1017.51
2022-08-08T03:48:02.101Z,1017.50
2022-08-08T03:49:56.324Z,1017.49
2022-08-08T03:50:02.564Z,1017.52
2022-08-08T03:51:01.062Z,1017.48
2022-08-08T03:52:01.049Z,1017.52
2022-08-08T03:53:01.054Z,1017.53
2022-08-08T03:54:01.027Z,1017.56
2022-08-08T03:55:10.289Z,1017.61
2022-08-08T03:56:04.787Z,1017.60
2022-08-08T03:58:31.948Z,1017.63
2022-08-08T03:58:32.104Z,1017.60
2022-08-08T03:59:01.963Z,1017.63
2022-08-08T04:00:11.531Z,1017.60
2022-08-08T04:01:24.211Z,1017.63
2022-08-08T04:02:13.578Z,1017.62
2022-08-08T04:03:03.430Z,1017.63
2022-08-08T04:04:02.000Z,1017.58
2022-08-08T04:05:00.901Z,1017.56
2022-08-08T04:06:00.891Z,1017.60
2022-08-08T04:07:01.870Z,1017.62
2022-08-08T04:08:00.880Z,1017.62
2022-08-08T04:09:07.011Z,1017.63
2022-08-08T04:10:05.498Z,1017.66
2022-08-08T04:11:00.835Z,1017.68
2022-08-08T04:12:01.052Z,1017.65
2022-08-08T04:13:00.820Z,1017.67
2022-08-08T04:14:33.440Z,1017.67
2022-08-08T04:15:01.792Z,1017.68
2022-08-08T04:16:03.964Z,1017.68
2022-08-08T04:17:00.759Z,1017.68
2022-08-08T04:18:00.772Z,1017.71
2022-08-08T04:19:00.736Z,1017.70
2022-08-08T04:20:01.961Z,1017.68
2022-08-08T04:21:00.946Z,1017.66
2022-08-08T04:22:00.706Z,1017.65
2022-08-08T04:23:03.338Z,1017.70
2022-08-08T04:24:05.424Z,1017.70
2022-08-08T04:25:02.418Z,1017.68
2022-08-08T04:26:03.092Z,1017.70
2022-08-08T04:27:01.647Z,1017.69
2022-08-08T04:28:34.252Z,1017.70
2022-08-08T04:29:01.650Z,1017.72
2022-08-08T04:30:01.173Z,1017.75
2022-08-08T04:31:04.547Z,1017.76
2022-08-08T04:32:00.799Z,1017.76
2022-08-08T04:33:00.583Z,1017.76
2022-08-08T04:34:00.563Z,1017.80
2022-08-08T04:35:01.239Z,1017.78
2022-08-08T04:36:00.550Z,1017.79
2022-08-08T04:37:03.708Z,1017.82
2022-08-08T04:38:00.533Z,1017.79
2022-08-08T04:39:47.774Z,1017.80
2022-08-08T04:40:04.949Z,1017.79
2022-08-08T04:41:01.577Z,1017.80
2022-08-08T04:42:00.480Z,1017.83
2022-08-08T04:43:00.967Z,1017.84
2022-08-08T04:44:00.457Z,1017.82
2022-08-08T04:45:00.464Z,1017.84
2022-08-08T04:46:00.434Z,1017.83
2022-08-08T04:47:00.431Z,1017.86
2022-08-08T04:48:00.854Z,1017.88
2022-08-08T04:49:00.398Z,1017.89
2022-08-08T04:50:05.098Z,1017.89
2022-08-08T04:51:01.371Z,1017.90
2022-08-08T04:52:00.368Z,1017.90
2022-08-08T04:53:04.798Z,1017.89
2022-08-08T04:54:39.010Z,1017.91
2022-08-08T04:55:01.759Z,1017.91
2022-08-08T04:56:00.312Z,1017.93
2022-08-08T04:57:00.303Z,1017.93
2022-08-08T04:58:00.298Z,1017.93
2022-08-08T04:59:00.282Z,1017.95
2022-08-08T05:00:00.272Z,1017.95
2022-08-08T05:01:00.281Z,1017.99
2022-08-08T05:02:01.373Z,1018.00
2022-08-08T05:03:00.235Z,1017.99
2022-08-08T05:04:10.408Z,1018.00
2022-08-08T05:05:01.210Z,1018.01
2022-08-08T05:06:00.229Z,1018.04
2022-08-08T05:07:01.196Z,1017.95
2022-08-08T05:08:00.178Z,1018.00
2022-08-08T05:09:02.707Z,1018.01
2022-08-08T05:10:01.155Z,1017.97
2022-08-08T05:11:00.158Z,1018.00
2022-08-08T05:12:00.138Z,1018.02
2022-08-08T05:13:02.083Z,1018.01
2022-08-08T05:14:02.077Z,1017.99
2022-08-08T05:15:00.100Z,1018.02
2022-08-08T05:16:54.507Z,1018.00
2022-08-08T05:17:02.026Z,1018.01
2022-08-08T05:18:01.064Z,1018.03
2022-08-08T05:19:00.053Z,1018.00
2022-08-08T05:20:09.656Z,1017.95
2022-08-08T05:21:01.035Z,1017.98
2022-08-08T05:22:00.486Z,1017.99
2022-08-08T05:23:00.014Z,1018.00
2022-08-08T05:24:04.236Z,1018.02
2022-08-08T05:25:00.981Z,1018.02
2022-08-08T05:26:00.439Z,1018.03
2022-08-08T05:26:59.981Z,1018.05
2022-08-08T05:27:59.950Z,1018.07
2022-08-08T05:29:06.255Z,1018.03
2022-08-08T05:30:00.941Z,1018.06
2022-08-08T05:30:59.922Z,1018.05
2022-08-08T05:32:04.075Z,1018.05
2022-08-08T05:32:59.891Z,1018.05
2022-08-08T05:33:59.885Z,1018.05
2022-08-08T05:35:04.705Z,1018.08
2022-08-08T05:36:00.867Z,1018.08
2022-08-08T05:36:59.848Z,1018.07
2022-08-08T05:37:59.853Z,1018.09
2022-08-08T05:38:59.831Z,1018.09
2022-08-08T05:39:59.821Z,1018.08
2022-08-08T05:40:59.809Z,1018.10
2022-08-08T05:41:59.799Z,1018.07
2022-08-08T05:42:59.803Z,1018.09
2022-08-08T05:44:03.205Z,1018.12
2022-08-08T05:45:00.405Z,1018.20
2022-08-08T05:46:02.929Z,1018.21
2022-08-08T05:47:03.046Z,1018.21
2022-08-08T05:48:01.509Z,1018.19
2022-08-08T05:49:00.719Z,1018.23
2022-08-08T05:49:59.704Z,1018.24
2022-08-08T05:51:13.356Z,1018.23
2022-08-08T05:52:00.685Z,1018.27
2022-08-08T05:53:54.892Z,1018.26
2022-08-08T05:54:26.787Z,1018.27
2022-08-08T05:55:03.456Z,1018.27
2022-08-08T05:56:10.261Z,1018.27
2022-08-08T05:57:00.621Z,1018.29
2022-08-08T05:58:05.982Z,1018.27
2022-08-08T05:59:03.568Z,1018.25
2022-08-08T06:00:23.374Z,1018.28
2022-08-08T06:01:00.577Z,1018.25
2022-08-08T06:01:59.901Z,1018.27
2022-08-08T06:02:59.621Z,1018.26
2022-08-08T06:03:59.706Z,1018.28
2022-08-08T06:04:59.532Z,1018.30
2022-08-08T06:05:59.624Z,1018.32
2022-08-08T06:07:00.292Z,1018.28
2022-08-08T06:08:03.048Z,1018.29
2022-08-08T06:09:41.678Z,1018.34
2022-08-08T06:10:02.132Z,1018.30
2022-08-08T06:10:59.464Z,1018.28
2022-08-08T06:11:59.461Z,1018.31
2022-08-08T06:12:59.459Z,1018.34
2022-08-08T06:13:59.440Z,1018.29
2022-08-08T06:14:59.420Z,1018.34
2022-08-08T06:15:59.414Z,1018.34
2022-08-08T06:16:59.395Z,1018.36
2022-08-08T06:18:18.403Z,1018.39
2022-08-08T06:19:00.395Z,1018.40
2022-08-08T06:19:59.373Z,1018.42
2022-08-08T06:20:59.354Z,1018.41
2022-08-08T06:21:59.523Z,1018.41
2022-08-08T06:22:59.327Z,1018.41
2022-08-08T06:24:03.594Z,1018.42
2022-08-08T06:25:00.312Z,1018.45
2022-08-08T06:26:38.267Z,1018.48
2022-08-08T06:27:00.282Z,1018.50
2022-08-08T06:27:59.281Z,1018.48
2022-08-08T06:29:02.416Z,1018.47
2022-08-08T06:30:01.970Z,1018.49
2022-08-08T06:30:59.243Z,1018.47
2022-08-08T06:32:11.123Z,1018.48
2022-08-08T06:33:00.996Z,1018.49
2022-08-08T06:34:26.524Z,1018.49
2022-08-08T06:35:35.527Z,1018.48
2022-08-08T06:36:07.911Z,1018.48
2022-08-08T06:37:00.258Z,1018.48
2022-08-08T06:37:59.169Z,1018.49
2022-08-08T06:38:59.166Z,1018.48
2022-08-08T06:40:00.547Z,1018.48
2022-08-08T06:40:59.134Z,1018.48
2022-08-08T06:41:59.123Z,1018.49
2022-08-08T06:42:59.103Z,1018.50
2022-08-08T06:43:59.100Z,1018.48
2022-08-08T06:44:59.089Z,1018.47
2022-08-08T06:45:59.095Z,1018.45
2022-08-08T06:46:59.060Z,1018.48
2022-08-08T06:48:01.711Z,1018.54
2022-08-08T06:48:59.095Z,1018.54
2022-08-08T06:49:59.033Z,1018.51
2022-08-08T06:50:59.027Z,1018.55
2022-08-08T06:51:59.012Z,1018.60
2022-08-08T06:52:59.005Z,1018.55
2022-08-08T06:54:00.795Z,1018.52
2022-08-08T06:54:59.572Z,1018.60
2022-08-08T06:56:02.327Z,1018.59
2022-08-08T06:56:58.956Z,1018.58
2022-08-08T06:58:02.104Z,1018.55
2022-08-08T06:58:59.926Z,1018.61
2022-08-08T07:00:10.025Z,1018.61
2022-08-08T07:00:59.943Z,1018.62
2022-08-08T07:02:27.018Z,1018.60
2022-08-08T07:02:59.959Z,1018.64
2022-08-08T07:04:39.557Z,1018.62
2022-08-08T07:05:00.499Z,1018.60
2022-08-08T07:06:01.764Z,1018.59
2022-08-08T07:06:58.847Z,1018.63
2022-08-08T07:07:58.827Z,1018.64
2022-08-08T07:08:58.813Z,1018.64
2022-08-08T07:09:59.824Z,1018.66
2022-08-08T07:10:58.791Z,1018.67
2022-08-08T07:11:58.809Z,1018.67
2022-08-08T07:12:58.782Z,1018.71
2022-08-08T07:14:00.868Z,1018.71
2022-08-08T07:14:58.751Z,1018.67
2022-08-08T07:16:04.911Z,1018.73
2022-08-08T07:16:59.740Z,1018.76
2022-08-08T07:18:02.041Z,1018.78
2022-08-08T07:18:59.706Z,1018.76
2022-08-08T07:20:00.103Z,1018.75
2022-08-08T07:20:58.683Z,1018.77
2022-08-08T07:22:05.377Z,1018.77
2022-08-08T07:22:59.670Z,1018.80
2022-08-08T07:24:03.144Z,1018.82
2022-08-08T07:24:59.637Z,1018.78
2022-08-08T07:25:58.627Z,1018.79
2022-08-08T07:26:58.620Z,1018.76
2022-08-08T07:28:07.569Z,1018.76
2022-08-08T07:28:59.597Z,1018.76
2022-08-08T07:30:05.790Z,1018.79
2022-08-08T07:30:59.593Z,1018.75
2022-08-08T07:31:58.557Z,1018.75
2022-08-08T07:32:59.492Z,1018.73
2022-08-08T07:33:59.457Z,1018.76
2022-08-08T07:35:00.531Z,1018.76
2022-08-08T07:35:58.519Z,1018.76
2022-08-08T07:36:58.518Z,1018.82
2022-08-08T07:38:09.901Z,1018.81
2022-08-08T07:38:59.475Z,1018.82
2022-08-08T07:39:59.912Z,1018.83
2022-08-08T07:40:58.528Z,1018.82
2022-08-08T07:42:03.730Z,1018.83
2022-08-08T07:42:59.587Z,1018.84
2022-08-08T07:43:58.426Z,1018.87
2022-08-08T07:44:58.424Z,1018.85
2022-08-08T07:46:18.091Z,1018.90
2022-08-08T07:46:59.392Z,1018.90
2022-08-08T07:47:58.383Z,1018.89
2022-08-08T07:48:58.382Z,1018.88
2022-08-08T07:49:58.607Z,1018.86
2022-08-08T07:50:58.354Z,1018.88
2022-08-08T07:51:58.355Z,1018.90
2022-08-08T07:52:58.331Z,1018.92
2022-08-08T07:54:02.618Z,1018.89
2022-08-08T07:54:59.312Z,1018.91
2022-08-08T07:55:58.302Z,1018.93
2022-08-08T07:56:58.290Z,1018.92
2022-08-08T07:57:58.282Z,1018.94
2022-08-08T07:58:58.288Z,1018.92
2022-08-08T07:59:58.256Z,1018.97
2022-08-08T08:01:00.071Z,1018.97
2022-08-08T08:02:35.781Z,1018.94
2022-08-08T08:02:59.220Z,1018.95
2022-08-08T08:03:58.211Z,1018.94
2022-08-08T08:04:58.213Z,1018.95
2022-08-08T08:05:58.188Z,1018.95
2022-08-08T08:06:58.169Z,1018.92
2022-08-08T08:07:58.170Z,1018.92
2022-08-08T08:08:58.155Z,1018.92
2022-08-08T08:09:58.199Z,1018.92
2022-08-08T08:10:58.133Z,1018.95
2022-08-08T08:11:58.147Z,1018.91
2022-08-08T08:12:58.111Z,1018.94
2022-08-08T08:14:09.715Z,1018.94
2022-08-08T08:14:59.108Z,1018.96
2022-08-08T08:15:59.071Z,1018.95
2022-08-08T08:16:58.065Z,1018.96
2022-08-08T08:17:58.226Z,1018.98
2022-08-08T08:18:58.044Z,1018.98
2022-08-08T08:19:58.027Z,1018.93
2022-08-08T08:20:58.096Z,1018.95
2022-08-08T08:22:00.791Z,1018.90
2022-08-08T08:22:58.012Z,1018.95
2022-08-08T08:24:02.628Z,1018.95
2022-08-08T08:24:57.979Z,1018.94
2022-08-08T08:25:58.573Z,1018.92
2022-08-08T08:26:57.968Z,1018.95
2022-08-08T08:27:57.939Z,1018.96
2022-08-08T08:28:57.934Z,1018.97
2022-08-08T08:29:57.918Z,1018.93
2022-08-08T08:30:57.930Z,1018.95
2022-08-08T08:32:03.273Z,1018.97
2022-08-08T08:32:59.197Z,1018.96
2022-08-08T08:33:57.876Z,1018.96
2022-08-08T08:34:57.867Z,1018.94
2022-08-08T08:36:18.881Z,1018.93
2022-08-08T08:36:58.840Z,1018.94
2022-08-08T08:38:18.926Z,1018.98
2022-08-08T08:38:58.824Z,1018.89
2022-08-08T08:40:00.497Z,1018.94
2022-08-08T08:40:57.803Z,1018.94
2022-08-08T08:41:57.799Z,1019.01
2022-08-08T08:42:57.778Z,1018.97
2022-08-08T08:44:13.798Z,1019.00
2022-08-08T08:44:58.769Z,1018.95
2022-08-08T08:45:57.861Z,1018.93
2022-08-08T08:46:58.801Z,1018.93
2022-08-08T08:47:58.680Z,1018.92
2022-08-08T08:48:57.715Z,1018.97
2022-08-08T08:49:57.696Z,1018.94
2022-08-08T08:50:57.689Z,1018.93
2022-08-08T08:51:57.687Z,1018.95
2022-08-08T08:52:59.912Z,1018.93
2022-08-08T08:54:00.770Z,1018.97
2022-08-08T08:54:57.638Z,1018.91
2022-08-08T08:56:02.660Z,1018.98
2022-08-08T08:56:58.629Z,1018.97
2022-08-08T08:57:57.612Z,1018.92
2022-08-08T08:58:57.972Z,1019.01
2022-08-08T09:00:01.880Z,1018.96
2022-08-08T09:01:09.118Z,1018.94
2022-08-08T09:01:58.649Z,1018.96
2022-08-08T09:02:57.547Z,1018.93
2022-08-08T09:03:57.535Z,1018.91
2022-08-08T09:04:57.544Z,1018.93
2022-08-08T09:05:57.514Z,1018.85
2022-08-08T09:06:57.521Z,1018.86
2022-08-08T09:08:12.963Z,1018.86
2022-08-08T09:08:58.486Z,1018.85
2022-08-08T09:09:58.362Z,1018.85
2022-08-08T09:10:57.457Z,1018.90
2022-08-08T09:12:01.992Z,1018.91
2022-08-08T09:12:58.448Z,1018.95
2022-08-08T09:13:57.426Z,1018.92
2022-08-08T09:14:57.413Z,1018.96
2022-08-08T09:16:03.341Z,1018.96
2022-08-08T09:16:58.407Z,1018.99
2022-08-08T09:17:57.648Z,1018.98
2022-08-08T09:18:57.371Z,1019.03
2022-08-08T09:21:58.687Z,1019.02
2022-08-08T09:22:02.958Z,1019.02
2022-08-08T09:22:06.240Z,1019.09
2022-08-08T09:22:58.998Z,1019.05
2022-08-08T09:23:57.326Z,1019.07
2022-08-08T09:24:58.564Z,1019.12
2022-08-08T09:26:02.022Z,1019.12
2022-08-08T09:26:58.291Z,1019.08
2022-08-08T09:27:58.578Z,1019.02
2022-08-08T09:28:57.261Z,1019.07
2022-08-08T09:29:57.258Z,1019.03
2022-08-08T09:30:57.243Z,1018.97
2022-08-08T09:31:57.730Z,1019.00
2022-08-08T09:33:13.124Z,1018.98
2022-08-08T09:34:30.840Z,1019.01
2022-08-08T09:34:58.198Z,1019.00
2022-08-08T09:35:57.187Z,1019.01
2022-08-08T09:37:57.812Z,1018.97
2022-08-08T09:38:01.841Z,1018.94
2022-08-08T09:38:58.010Z,1018.91
2022-08-08T09:39:57.208Z,1018.91
2022-08-08T09:40:57.828Z,1018.84
2022-08-08T09:42:21.178Z,1018.84
2022-08-08T09:42:58.112Z,1018.85
2022-08-08T09:44:06.197Z,1018.91
2022-08-08T09:44:58.098Z,1018.89
2022-08-08T09:46:02.808Z,1018.86
2022-08-08T09:47:05.349Z,1018.87
2022-08-08T09:48:10.028Z,1018.82
2022-08-08T09:48:58.062Z,1018.82
2022-08-08T09:49:58.870Z,1018.78
2022-08-08T09:50:58.027Z,1018.80
2022-08-08T09:52:06.699Z,1018.79
2022-08-08T09:53:00.872Z,1018.78
2022-08-08T09:54:08.447Z,1018.80
2022-08-08T09:54:57.991Z,1018.80
2022-08-08T09:56:05.351Z,1018.79
2022-08-08T09:56:57.963Z,1018.79
2022-08-08T09:57:56.955Z,1018.77
2022-08-08T09:58:57.871Z,1018.82
2022-08-08T10:00:59.014Z,1018.77
2022-08-08T10:01:59.937Z,1018.77
2022-08-08T10:02:57.908Z,1018.77
2022-08-08T10:03:57.333Z,1018.77
2022-08-08T10:04:56.967Z,1018.80
2022-08-08T10:05:56.954Z,1018.84
2022-08-08T10:06:56.861Z,1018.77
2022-08-08T10:07:59.724Z,1018.80
2022-08-08T10:08:56.854Z,1018.76
2022-08-08T10:10:00.581Z,1018.72
2022-08-08T10:10:56.827Z,1018.77
2022-08-08T10:12:26.221Z,1018.74
2022-08-08T10:13:00.299Z,1018.76
2022-08-08T10:13:57.837Z,1018.79
2022-08-08T10:14:56.792Z,1018.78
2022-08-08T10:15:59.200Z,1018.76
2022-08-08T10:16:56.764Z,1018.73
2022-08-08T10:18:11.752Z,1018.77
2022-08-08T10:18:57.735Z,1018.73
2022-08-08T10:19:58.256Z,1018.75
2022-08-08T10:21:00.706Z,1018.76
2022-08-08T10:21:57.713Z,1018.78
2022-08-08T10:22:56.703Z,1018.76
2022-08-08T10:23:59.273Z,1018.80
2022-08-08T10:24:56.675Z,1018.80
2022-08-08T10:25:57.485Z,1018.81
2022-08-08T10:26:59.298Z,1018.78
2022-08-08T10:27:57.699Z,1018.75
2022-08-08T10:28:56.924Z,1018.79
2022-08-08T10:29:59.487Z,1018.75
2022-08-08T10:31:00.553Z,1018.75
2022-08-08T10:31:57.625Z,1018.79
2022-08-08T10:32:56.595Z,1018.84
2022-08-08T10:34:19.946Z,1018.80
2022-08-08T10:35:01.377Z,1018.76
2022-08-08T10:36:09.720Z,1018.72
2022-08-08T10:36:59.894Z,1018.75
2022-08-08T10:37:56.546Z,1018.76
2022-08-08T10:38:56.544Z,1018.77
2022-08-08T10:39:56.586Z,1018.74
2022-08-08T10:40:56.524Z,1018.75
2022-08-08T10:42:13.049Z,1018.72
2022-08-08T10:42:57.496Z,1018.73
2022-08-08T10:43:56.486Z,1018.74
2022-08-08T10:44:56.477Z,1018.76
2022-08-08T10:45:58.760Z,1018.73
2022-08-08T10:46:56.458Z,1018.74
2022-08-08T10:47:56.474Z,1018.80
2022-08-08T10:48:58.964Z,1018.80
2022-08-08T10:50:01.686Z,1018.79
2022-08-08T10:50:57.418Z,1018.76
2022-08-08T10:51:56.408Z,1018.77
2022-08-08T10:52:56.426Z,1018.76
2022-08-08T10:53:59.582Z,1018.75
2022-08-08T10:54:56.387Z,1018.76
2022-08-08T10:55:56.370Z,1018.74
2022-08-08T10:56:56.361Z,1018.69
2022-08-08T10:57:56.371Z,1018.68
2022-08-08T10:58:56.349Z,1018.64
2022-08-08T10:59:56.330Z,1018.61
2022-08-08T11:01:04.955Z,1018.64
2022-08-08T11:01:57.342Z,1018.59
2022-08-08T11:02:56.317Z,1018.67
2022-08-08T11:04:02.303Z,1018.64
2022-08-08T11:04:57.281Z,1018.67
2022-08-08T11:06:00.702Z,1018.66
2022-08-08T11:06:56.270Z,1018.65
2022-08-08T11:08:36.875Z,1018.62
2022-08-08T11:08:57.249Z,1018.58
2022-08-08T11:09:56.241Z,1018.55
2022-08-08T11:10:56.225Z,1018.46
2022-08-08T11:12:05.250Z,1018.48
2022-08-08T11:13:25.433Z,1018.50
2022-08-08T11:13:59.974Z,1018.48
2022-08-08T11:14:56.184Z,1018.50
2022-08-08T11:16:01.470Z,1018.48
2022-08-08T11:16:57.164Z,1018.44
2022-08-08T11:17:59.742Z,1018.40
2022-08-08T11:18:57.164Z,1018.42
2022-08-08T11:19:56.132Z,1018.47
2022-08-08T11:20:56.132Z,1018.46
2022-08-08T11:21:56.492Z,1018.42
2022-08-08T11:22:56.112Z,1018.39
2022-08-08T11:24:02.191Z,1018.40
2022-08-08T11:24:57.090Z,1018.32
2022-08-08T11:25:58.440Z,1018.33
2022-08-08T11:26:56.671Z,1018.30
2022-08-08T11:27:56.051Z,1018.29
2022-08-08T11:28:56.060Z,1018.15
2022-08-08T11:30:19.324Z,1018.23
2022-08-08T11:30:57.030Z,1018.19
2022-08-08T11:31:56.011Z,1018.25
2022-08-08T11:32:56.004Z,1018.26
2022-08-08T11:34:02.882Z,1018.26
2022-08-08T11:35:24.424Z,1018.28
2022-08-08T11:35:56.977Z,1018.21
2022-08-08T11:36:58.785Z,1018.23
2022-08-08T11:38:39.735Z,1018.20
2022-08-08T11:38:56.955Z,1018.27
2022-08-08T11:39:57.509Z,1018.23
2022-08-08T11:40:55.927Z,1018.24
2022-08-08T11:41:55.910Z,1018.21
2022-08-08T11:42:55.901Z,1018.20
2022-08-08T11:43:57.883Z,1018.22
2022-08-08T11:44:55.901Z,1018.19
2022-08-08T11:46:17.882Z,1018.20
2022-08-08T11:46:56.864Z,1018.19
2022-08-08T11:48:02.612Z,1018.22
2022-08-08T11:48:56.853Z,1018.22
2022-08-08T11:49:55.834Z,1018.18
2022-08-08T11:50:55.840Z,1018.20
2022-08-08T11:51:55.813Z,1018.18
2022-08-08T11:52:55.796Z,1018.16
2022-08-08T11:54:01.107Z,1018.12
2022-08-08T11:54:56.775Z,1018.12
2022-08-08T11:55:55.779Z,1018.13
2022-08-08T11:56:56.009Z,1018.12
2022-08-08T11:58:00.004Z,1018.14
2022-08-08T11:58:56.741Z,1018.14
2022-08-08T12:00:01.346Z,1018.06
2022-08-08T12:00:56.723Z,1018.07
2022-08-08T12:02:15.018Z,1018.05
2022-08-08T12:02:56.743Z,1018.03
2022-08-08T12:03:59.459Z,1018.08
2022-08-08T12:04:55.679Z,1018.02
2022-08-08T12:05:55.678Z,1018.06